Silver Bergen — LAHO6 — position and weather

sailwx.info

Track history (hours):
 
Tides and Currents Weather Stations Pressure Air Temp Water Temp Dewpoint Dewpoint Depression Visibility Wind Speed Wind Dir Waves Ship Positions

Silver Bergen

Last reported at 2017-Jan-15 19:16 UTC. Time now 2017-Jan-17 07:04 UTC.
Position N 58°32' E 004°34'.

Length 98 m; draft 4.6 m.

Type: Cargo ship. MMSI: 257951000.

Date/timePositionNaut miles runAvg speedWind from/ knotsBaromVisibWave heightAir tempDewpointWater temp
2017-Jan-15 19:16N 58°32' E 004°34'1014.4
2017-Jan-15 18:33N 58°28' E 004°52'1513.7
2017-Jan-15 17:26N 58°22' E 005°19'1112.9
2017-Jan-15 16:33N 58°17' E 005°38'1313.2
2017-Jan-15 15:34N 58°11' E 006°00'1413.7
2017-Jan-15 14:31N 58°04' E 006°24'1314.0
2017-Jan-15 13:33N 57°59' E 006°48'1413.8
2017-Jan-15 12:33N 57°55' E 007°13'3314.3
2017-Jan-15 10:15N 57°54' E 008°15'7114.3
2017-Jan-15 05:19N 57°51' E 010°27'1013.4
2017-Jan-15 04:33N 57°49' E 010°46'1413.8
2017-Jan-15 03:33N 57°39' E 011°04'1414.1
2017-Jan-15 02:33N 57°30' E 011°24'1414.2
2017-Jan-15 01:33N 57°17' E 011°35'1514.4
2017-Jan-15 00:33N 57°03' E 011°45'5814.5
2017-Jan-14 20:33N 56°11' E 012°29'1413.5
2017-Jan-14 19:33N 55°59' E 012°41'1212.4
2017-Jan-14 18:33N 55°47' E 012°43'8 8.4
2017-Jan-14 17:33N 55°38' E 012°42'1211.9
2017-Jan-14 16:33N 55°27' E 012°42'1111.1
2017-Jan-14 15:33N 55°16' E 012°50'1413.6
2017-Jan-14 14:33N 55°16' E 013°14'1513.9
2017-Jan-14 13:27N 55°15' E 013°41'1414.0
2017-Jan-14 12:25N 55°14' E 014°06'1112.5
2017-Jan-14 11:33N 55°19' E 014°23'1413.7
2017-Jan-14 10:33N 55°29' E 014°40'1413.7
2017-Jan-14 09:33N 55°35' E 015°01'35312.6
2017-Jan-13 05:32N 59°36' E 023°02'1212.4
2017-Jan-13 04:34N 59°39' E 023°25'1312.6
2017-Jan-13 03:33N 59°43' E 023°49'1312.5
2017-Jan-13 02:32N 59°46' E 024°14'6012.0
2017-Jan-12 21:34N 59°59' E 026°10'1111.5
2017-Jan-12 20:33N 60°02' E 026°32'1211.6
2017-Jan-12 19:31N 60°00' E 026°56'3110.5
2017-Jan-12 16:34N 60°11' E 027°54'1211.9
2017-Jan-12 15:33N 60°08' E 028°17'1511.3
2017-Jan-12 14:11N 60°03' E 028°46'6 6.1
2017-Jan-12 13:07N 60°03' E 028°59'20 7.4
2017-Jan-12 10:23N 59°60' E 029°39'8 9.9
2017-Jan-12 09:34N 59°56' E 029°54'9 8.8
2017-Jan-12 08:33N 59°53' E 030°11'1 1.4
2017-Jan-12 07:33N 59°52' E 030°13'0 0.0
2017-Jan-12 06:33N 59°52' E 030°13'0 0.0
2017-Jan-12 05:33N 59°52' E 030°13'0 0.0
2017-Jan-12 04:30N 59°52' E 030°13'0 0.0
2017-Jan-12 03:33N 59°52' E 030°13'0 0.0
2017-Jan-12 02:30N 59°52' E 030°13'0 0.0
2017-Jan-12 01:33N 59°52' E 030°13'0 0.0
2017-Jan-12 00:33N 59°52' E 030°13'0 0.0
2017-Jan-11 23:33N 59°52' E 030°13'0 0.0
2017-Jan-11 22:33N 59°52' E 030°13'0 0.0
2017-Jan-11 21:33N 59°52' E 030°13'0 0.0
2017-Jan-11 20:30N 59°52' E 030°13'0 0.0
2017-Jan-11 19:33N 59°52' E 030°13'0 0.0
2017-Jan-11 18:30N 59°52' E 030°13'0 0.0
2017-Jan-11 17:33N 59°52' E 030°13'0 0.0
2017-Jan-11 16:33N 59°52' E 030°13'0 0.0
2017-Jan-11 15:33N 59°52' E 030°13'0 0.0
2017-Jan-11 14:33N 59°52' E 030°13'0 0.0
2017-Jan-11 13:33N 59°52' E 030°13'0 0.0
2017-Jan-11 12:33N 59°52' E 030°13'0 0.0
2017-Jan-11 11:33N 59°52' E 030°13'0 0.0
2017-Jan-11 10:30N 59°52' E 030°13'0 0.0
2017-Jan-11 09:21N 59°52' E 030°13'0 0.0
2017-Jan-11 08:33N 59°52' E 030°13'0 0.0
2017-Jan-11 07:33N 59°52' E 030°13'0 0.0
2017-Jan-11 06:33N 59°52' E 030°13'0 0.0
2017-Jan-11 05:33N 59°52' E 030°13'0 0.0
2017-Jan-11 04:33N 59°52' E 030°13'0 0.0
2017-Jan-11 03:33N 59°52' E 030°13'0 0.0
2017-Jan-11 02:33N 59°52' E 030°13'0 0.0
2017-Jan-11 01:30N 59°52' E 030°13'0 0.0
2017-Jan-11 00:33N 59°52' E 030°13'0 0.0
2017-Jan-10 23:27N 59°52' E 030°13'0 0.0
2017-Jan-10 22:33N 59°52' E 030°13'0 0.0
2017-Jan-10 21:33N 59°52' E 030°13'0 0.0
2017-Jan-10 20:33N 59°52' E 030°13'0 0.0
2017-Jan-10 19:27N 59°52' E 030°13'0 0.0
2017-Jan-10 18:33N 59°52' E 030°13'0 0.0
2017-Jan-10 17:33N 59°52' E 030°13'0 0.0
2017-Jan-10 16:33N 59°52' E 030°13'0 0.0
2017-Jan-10 15:33N 59°52' E 030°13'0 0.0
2017-Jan-10 14:33N 59°52' E 030°13'0 0.0
2017-Jan-10 13:33N 59°52' E 030°13'0 0.0
2017-Jan-10 12:33N 59°52' E 030°13'0 0.0
2017-Jan-10 11:33N 59°52' E 030°13'0 0.0
2017-Jan-10 10:33N 59°52' E 030°13'0 0.0
2017-Jan-10 09:30N 59°52' E 030°13'0 0.0
2017-Jan-10 08:33N 59°52' E 030°13'0 0.0
2017-Jan-10 07:33N 59°52' E 030°13'0 0.0
2017-Jan-10 06:33N 59°52' E 030°13'0 0.0
2017-Jan-10 05:33N 59°52' E 030°13'0 0.0
2017-Jan-10 04:33N 59°52' E 030°13'0 0.0
2017-Jan-10 03:33N 59°52' E 030°13'0 0.0
2017-Jan-10 02:33N 59°52' E 030°13'0 0.0
2017-Jan-10 01:33N 59°52' E 030°13'0 0.0
2017-Jan-10 00:33N 59°52' E 030°13'0 0.0
2017-Jan-09 23:33N 59°52' E 030°13'0 0.0
2017-Jan-09 22:33N 59°52' E 030°13'0 0.0
2017-Jan-09 21:33N 59°52' E 030°13'0 0.0
2017-Jan-09 20:30N 59°52' E 030°13'0 0.0
2017-Jan-09 19:18N 59°52' E 030°13'0 0.0
2017-Jan-09 18:27N 59°52' E 030°13'0 0.0
2017-Jan-09 17:33N 59°52' E 030°13'0 0.0
2017-Jan-09 16:33N 59°52' E 030°13'0 0.0
2017-Jan-09 15:33N 59°52' E 030°13'0 0.3
2017-Jan-09 14:33N 59°52' E 030°12'8 8.3
2017-Jan-09 13:33N 59°56' E 029°57'1211.5
2017-Jan-09 12:31N 60°01' E 029°35'5 4.4
2017-Jan-09 11:26N 60°01' E 029°26'2 0.4
2017-Jan-09 05:30N 60°01' E 029°21'10 9.6
2017-Jan-09 04:28N 60°02' E 029°01'8 8.3
2017-Jan-09 03:33N 60°02' E 028°46'1010.4
2017-Jan-09 02:33N 60°03' E 028°26'1312.9
2017-Jan-09 01:33N 60°09' E 028°02'2612.6
2017-Jan-08 23:31N 60°01' E 027°13'11214.0
2017-Jan-08 15:32N 59°35' E 023°37'1615.0
2017-Jan-08 14:26N 59°29' E 023°06'34013.6
2017-Jan-07 13:21N 55°37' E 015°23'1113.7
2017-Jan-07 12:33N 55°32' E 015°06'1413.7
2017-Jan-07 11:33N 55°25' E 014°45'1414.1
2017-Jan-07 10:33N 55°15' E 014°27'1413.7
2017-Jan-07 09:33N 55°10' E 014°05'1414.4
2017-Jan-07 08:33N 55°11' E 013°40'1814.1
2017-Jan-07 07:17N 55°13' E 013°09'1013.9
2017-Jan-07 06:33N 55°15' E 012°51'1110.7
2017-Jan-07 05:34N 55°23' E 012°39'1211.9
2017-Jan-07 04:33N 55°35' E 012°42'1110.9
2017-Jan-07 03:34N 55°46' E 012°41'1212.1
2017-Jan-07 02:34N 55°58' E 012°38'1110.6
2017-Jan-07 01:34N 56°07' E 012°29'1513.8
2017-Jan-07 00:27N 56°16' E 012°07'5212.3
2017-Jan-06 20:13N 57°06' E 011°37'812.4
2017-Jan-06 19:33N 57°14' E 011°32'1312.6
2017-Jan-06 18:34N 57°26' E 011°24'1212.4
2017-Jan-06 17:33N 57°35' E 011°08'1312.5
2017-Jan-06 16:34N 57°43' E 010°51'1313.0
2017-Jan-06 15:33N 57°47' E 010°27'10913.7
2017-Jan-06 07:33N 57°52' E 007°02'1312.7
2017-Jan-06 06:32N 57°52' E 006°38'1212.4
2017-Jan-06 05:33N 57°56' E 006°16'  
Track history (hours):
 
Tides and Currents Weather Stations Pressure Air Temp Water Temp Dewpoint Dewpoint Depression Visibility Wind Speed Wind Dir Waves Ship Positions

Silver Bergen

Last reported at 2017-Jan-15 19:16 UTC. Time now 2017-Jan-17 07:04 UTC.
Position N 58°32' E 004°34'.

Length 98 m; draft 4.6 m.

Type: Cargo ship. MMSI: 257951000.

Date/timePositionNaut miles runAvg speedWind from/ knotsBaromVisibWave heightAir tempDewpointWater temp
2017-Jan-15 19:16N 58°32' E 004°34'1014.4
2017-Jan-15 18:33N 58°28' E 004°52'1513.7
2017-Jan-15 17:26N 58°22' E 005°19'1112.9
2017-Jan-15 16:33N 58°17' E 005°38'1313.2
2017-Jan-15 15:34N 58°11' E 006°00'1413.7
2017-Jan-15 14:31N 58°04' E 006°24'1314.0
2017-Jan-15 13:33N 57°59' E 006°48'1413.8
2017-Jan-15 12:33N 57°55' E 007°13'3314.3
2017-Jan-15 10:15N 57°54' E 008°15'7114.3
2017-Jan-15 05:19N 57°51' E 010°27'1013.4
2017-Jan-15 04:33N 57°49' E 010°46'1413.8
2017-Jan-15 03:33N 57°39' E 011°04'1414.1
2017-Jan-15 02:33N 57°30' E 011°24'1414.2
2017-Jan-15 01:33N 57°17' E 011°35'1514.4
2017-Jan-15 00:33N 57°03' E 011°45'5814.5
2017-Jan-14 20:33N 56°11' E 012°29'1413.5
2017-Jan-14 19:33N 55°59' E 012°41'1212.4
2017-Jan-14 18:33N 55°47' E 012°43'8 8.4
2017-Jan-14 17:33N 55°38' E 012°42'1211.9
2017-Jan-14 16:33N 55°27' E 012°42'1111.1
2017-Jan-14 15:33N 55°16' E 012°50'1413.6
2017-Jan-14 14:33N 55°16' E 013°14'1513.9
2017-Jan-14 13:27N 55°15' E 013°41'1414.0
2017-Jan-14 12:25N 55°14' E 014°06'1112.5
2017-Jan-14 11:33N 55°19' E 014°23'1413.7
2017-Jan-14 10:33N 55°29' E 014°40'1413.7
2017-Jan-14 09:33N 55°35' E 015°01'35312.6
2017-Jan-13 05:32N 59°36' E 023°02'1212.4
2017-Jan-13 04:34N 59°39' E 023°25'1312.6
2017-Jan-13 03:33N 59°43' E 023°49'1312.5
2017-Jan-13 02:32N 59°46' E 024°14'6012.0
2017-Jan-12 21:34N 59°59' E 026°10'1111.5
2017-Jan-12 20:33N 60°02' E 026°32'1211.6
2017-Jan-12 19:31N 60°00' E 026°56'3110.5
2017-Jan-12 16:34N 60°11' E 027°54'1211.9
2017-Jan-12 15:33N 60°08' E 028°17'1511.3
2017-Jan-12 14:11N 60°03' E 028°46'6 6.1
2017-Jan-12 13:07N 60°03' E 028°59'20 7.4
2017-Jan-12 10:23N 59°60' E 029°39'8 9.9
2017-Jan-12 09:34N 59°56' E 029°54'9 8.8
2017-Jan-12 08:33N 59°53' E 030°11'1 1.4
2017-Jan-12 07:33N 59°52' E 030°13'0 0.0
2017-Jan-12 06:33N 59°52' E 030°13'0 0.0
2017-Jan-12 05:33N 59°52' E 030°13'0 0.0
2017-Jan-12 04:30N 59°52' E 030°13'0 0.0
2017-Jan-12 03:33N 59°52' E 030°13'0 0.0
2017-Jan-12 02:30N 59°52' E 030°13'0 0.0
2017-Jan-12 01:33N 59°52' E 030°13'0 0.0
2017-Jan-12 00:33N 59°52' E 030°13'0 0.0
2017-Jan-11 23:33N 59°52' E 030°13'0 0.0
2017-Jan-11 22:33N 59°52' E 030°13'0 0.0
2017-Jan-11 21:33N 59°52' E 030°13'0 0.0
2017-Jan-11 20:30N 59°52' E 030°13'0 0.0
2017-Jan-11 19:33N 59°52' E 030°13'0 0.0
2017-Jan-11 18:30N 59°52' E 030°13'0 0.0
2017-Jan-11 17:33N 59°52' E 030°13'0 0.0
2017-Jan-11 16:33N 59°52' E 030°13'0 0.0
2017-Jan-11 15:33N 59°52' E 030°13'0 0.0
2017-Jan-11 14:33N 59°52' E 030°13'0 0.0
2017-Jan-11 13:33N 59°52' E 030°13'0 0.0
2017-Jan-11 12:33N 59°52' E 030°13'0 0.0
2017-Jan-11 11:33N 59°52' E 030°13'0 0.0
2017-Jan-11 10:30N 59°52' E 030°13'0 0.0
2017-Jan-11 09:21N 59°52' E 030°13'0 0.0
2017-Jan-11 08:33N 59°52' E 030°13'0 0.0
2017-Jan-11 07:33N 59°52' E 030°13'0 0.0
2017-Jan-11 06:33N 59°52' E 030°13'0 0.0
2017-Jan-11 05:33N 59°52' E 030°13'0 0.0
2017-Jan-11 04:33N 59°52' E 030°13'0 0.0
2017-Jan-11 03:33N 59°52' E 030°13'0 0.0
2017-Jan-11 02:33N 59°52' E 030°13'0 0.0
2017-Jan-11 01:30N 59°52' E 030°13'0 0.0
2017-Jan-11 00:33N 59°52' E 030°13'0 0.0
2017-Jan-10 23:27N 59°52' E 030°13'0 0.0
2017-Jan-10 22:33N 59°52' E 030°13'0 0.0
2017-Jan-10 21:33N 59°52' E 030°13'0 0.0
2017-Jan-10 20:33N 59°52' E 030°13'0 0.0
2017-Jan-10 19:27N 59°52' E 030°13'0 0.0
2017-Jan-10 18:33N 59°52' E 030°13'0 0.0
2017-Jan-10 17:33N 59°52' E 030°13'0 0.0
2017-Jan-10 16:33N 59°52' E 030°13'0 0.0
2017-Jan-10 15:33N 59°52' E 030°13'0 0.0
2017-Jan-10 14:33N 59°52' E 030°13'0 0.0
2017-Jan-10 13:33N 59°52' E 030°13'0 0.0
2017-Jan-10 12:33N 59°52' E 030°13'0 0.0
2017-Jan-10 11:33N 59°52' E 030°13'0 0.0
2017-Jan-10 10:33N 59°52' E 030°13'0 0.0
2017-Jan-10 09:30N 59°52' E 030°13'0 0.0
2017-Jan-10 08:33N 59°52' E 030°13'0 0.0
2017-Jan-10 07:33N 59°52' E 030°13'0 0.0
2017-Jan-10 06:33N 59°52' E 030°13'0 0.0
2017-Jan-10 05:33N 59°52' E 030°13'0 0.0
2017-Jan-10 04:33N 59°52' E 030°13'0 0.0
2017-Jan-10 03:33N 59°52' E 030°13'0 0.0
2017-Jan-10 02:33N 59°52' E 030°13'0 0.0
2017-Jan-10 01:33N 59°52' E 030°13'0 0.0
2017-Jan-10 00:33N 59°52' E 030°13'0 0.0
2017-Jan-09 23:33N 59°52' E 030°13'0 0.0
2017-Jan-09 22:33N 59°52' E 030°13'0 0.0
2017-Jan-09 21:33N 59°52' E 030°13'0 0.0
2017-Jan-09 20:30N 59°52' E 030°13'0 0.0
2017-Jan-09 19:18N 59°52' E 030°13'0 0.0
2017-Jan-09 18:27N 59°52' E 030°13'0 0.0
2017-Jan-09 17:33N 59°52' E 030°13'0 0.0
2017-Jan-09 16:33N 59°52' E 030°13'0 0.0
2017-Jan-09 15:33N 59°52' E 030°13'0 0.3
2017-Jan-09 14:33N 59°52' E 030°12'8 8.3
2017-Jan-09 13:33N 59°56' E 029°57'1211.5
2017-Jan-09 12:31N 60°01' E 029°35'5 4.4
2017-Jan-09 11:26N 60°01' E 029°26'2 0.4
2017-Jan-09 05:30N 60°01' E 029°21'10 9.6
2017-Jan-09 04:28N 60°02' E 029°01'8 8.3
2017-Jan-09 03:33N 60°02' E 028°46'1010.4
2017-Jan-09 02:33N 60°03' E 028°26'1312.9
2017-Jan-09 01:33N 60°09' E 028°02'2612.6
2017-Jan-08 23:31N 60°01' E 027°13'11214.0
2017-Jan-08 15:32N 59°35' E 023°37'1615.0
2017-Jan-08 14:26N 59°29' E 023°06'34013.6
2017-Jan-07 13:21N 55°37' E 015°23'1113.7
2017-Jan-07 12:33N 55°32' E 015°06'1413.7
2017-Jan-07 11:33N 55°25' E 014°45'1414.1
2017-Jan-07 10:33N 55°15' E 014°27'1413.7
2017-Jan-07 09:33N 55°10' E 014°05'1414.4
2017-Jan-07 08:33N 55°11' E 013°40'1814.1
2017-Jan-07 07:17N 55°13' E 013°09'1013.9
2017-Jan-07 06:33N 55°15' E 012°51'1110.7
2017-Jan-07 05:34N 55°23' E 012°39'1211.9
2017-Jan-07 04:33N 55°35' E 012°42'1110.9
2017-Jan-07 03:34N 55°46' E 012°41'1212.1
2017-Jan-07 02:34N 55°58' E 012°38'1110.6
2017-Jan-07 01:34N 56°07' E 012°29'1513.8
2017-Jan-07 00:27N 56°16' E 012°07'5212.3
2017-Jan-06 20:13N 57°06' E 011°37'812.4
2017-Jan-06 19:33N 57°14' E 011°32'1312.6
2017-Jan-06 18:34N 57°26' E 011°24'1212.4
2017-Jan-06 17:33N 57°35' E 011°08'1312.5
2017-Jan-06 16:34N 57°43' E 010°51'1313.0
2017-Jan-06 15:33N 57°47' E 010°27'10913.7
2017-Jan-06 07:33N 57°52' E 007°02'1312.7
2017-Jan-06 06:32N 57°52' E 006°38'1212.4
2017-Jan-06 05:33N 57°56' E 006°16'  

Dump ship's entire track history